Terminal Aerodrome Forecast
Issued by NWS

Home | Current Version | Previous Version | Text Only | Print | Product List | Glossary On
Versions: 1 2 3 4 5 6 7 8 9 10 11 12 13 14 15 16 17 18 19 20 21
000
FTUS43 KBIS 211725
TAFDIK
TAF
KDIK 211725Z 2118/2218 23009KT P6SM VCSH BKN100
      TEMPO 2118/2120 -RA BKN060
     FM220100 25014KT P6SM BKN200 WS020/26040KT
     FM220500 26006KT P6SM VCSH BKN080
     FM220700 27006KT P6SM -RASN OVC050 WS020/27040KT
     FM220900 28006KT P6SM -SN OVC035
     FM221300 32007KT P6SM -SN BKN003=

USA.gov is the U.S. government's official web portal to all federal, state and local government web resources and services.